sensor_id;sensor_type;location;lat;lon;timestamp;pressure;altitude;pressure_sealevel;temperature;humidity
2875;BME280;1445;52.600;13.328;2023-01-31T00:00:55;100655.97;;;3.02;100.00
2875;BME280;1445;52.600;13.328;2023-01-31T00:03:21;100665.78;;;3.03;100.00
2875;BME280;1445;52.600;13.328;2023-01-31T00:05:46;100685.47;;;3.10;100.00
2875;BME280;1445;52.600;13.328;2023-01-31T00:08:12;100661.22;;;3.09;100.00
2875;BME280;1445;52.600;13.328;2023-01-31T00:10:38;100657.03;;;3.01;100.00
2875;BME280;1445;52.600;13.328;2023-01-31T00:13:04;100666.59;;;3.04;100.00
2875;BME280;1445;52.600;13.328;2023-01-31T00:15:29;100673.38;;;3.01;100.00
2875;BME280;1445;52.600;13.328;2023-01-31T00:17:55;100688.56;;;2.97;100.00
2875;BME280;1445;52.600;13.328;2023-01-31T00:20:20;100673.88;;;2.98;100.00
2875;BME280;1445;52.600;13.328;2023-01-31T00:22:46;100677.25;;;3.05;100.00
2875;BME280;1445;52.600;13.328;2023-01-31T00:25:11;100679.41;;;3.03;100.00
2875;BME280;1445;52.600;13.328;2023-01-31T00:27:37;100685.94;;;3.02;100.00
2875;BME280;1445;52.600;13.328;2023-01-31T00:30:03;100683.38;;;2.96;100.00
2875;BME280;1445;52.600;13.328;2023-01-31T00:32:28;100694.66;;;3.04;100.00
2875;BME280;1445;52.600;13.328;2023-01-31T00:34:54;100706.75;;;3.14;100.00
2875;BME280;1445;52.600;13.328;2023-01-31T00:37:20;100702.59;;;3.06;100.00
2875;BME280;1445;52.600;13.328;2023-01-31T00:39:45;100743.16;;;3.07;100.00
2875;BME280;1445;52.600;13.328;2023-01-31T00:42:11;100706.69;;;3.08;100.00
2875;BME280;1445;52.600;13.328;2023-01-31T00:44:36;100711.06;;;3.09;100.00
2875;BME280;1445;52.600;13.328;2023-01-31T00:47:02;100717.38;;;3.15;100.00
2875;BME280;1445;52.600;13.328;2023-01-31T00:49:27;100722.91;;;3.20;100.00
2875;BME280;1445;52.600;13.328;2023-01-31T00:51:53;100735.72;;;3.20;100.00
2875;BME280;1445;52.600;13.328;2023-01-31T00:54:18;100726.19;;;3.22;100.00
2875;BME280;1445;52.600;13.328;2023-01-31T00:56:44;100727.91;;;3.28;100.00
2875;BME280;1445;52.600;13.328;2023-01-31T00:59:10;100734.50;;;3.32;100.00
2875;BME280;1445;52.600;13.328;2023-01-31T01:01:36;100733.44;;;3.33;100.00
2875;BME280;1445;52.600;13.328;2023-01-31T01:04:02;100741.94;;;3.37;100.00
2875;BME280;1445;52.600;13.328;2023-01-31T01:06:28;100755.28;;;3.39;100.00
2875;BME280;1445;52.600;13.328;2023-01-31T01:08:55;100752.59;;;3.44;100.00
2875;BME280;1445;52.600;13.328;2023-01-31T01:11:27;100765.22;;;3.50;100.00
2875;BME280;1445;52.600;13.328;2023-01-31T01:13:54;100768.47;;;3.47;100.00
2875;BME280;1445;52.600;13.328;2023-01-31T01:16:34;100758.66;;;3.46;100.00
2875;BME280;1445;52.600;13.328;2023-01-31T01:19:01;100770.13;;;3.48;100.00
2875;BME280;1445;52.600;13.328;2023-01-31T01:21:28;100767.13;;;3.49;100.00
2875;BME280;1445;52.600;13.328;2023-01-31T01:23:56;100770.75;;;3.55;100.00
2875;BME280;1445;52.600;13.328;2023-01-31T01:26:23;100767.72;;;3.51;100.00
2875;BME280;1445;52.600;13.328;2023-01-31T01:28:51;100767.13;;;3.49;100.00
2875;BME280;1445;52.600;13.328;2023-01-31T01:31:18;100766.63;;;3.52;100.00
2875;BME280;1445;52.600;13.328;2023-01-31T01:33:44;100776.72;;;3.52;100.00
2875;BME280;1445;52.600;13.328;2023-01-31T01:36:12;100810.25;;;3.52;100.00
2875;BME280;1445;52.600;13.328;2023-01-31T01:38:40;100781.16;;;3.58;100.00
2875;BME280;1445;52.600;13.328;2023-01-31T01:41:06;100780.00;;;3.54;100.00
2875;BME280;1445;52.600;13.328;2023-01-31T01:43:59;100772.91;;;3.53;100.00
2875;BME280;1445;52.600;13.328;2023-01-31T01:46:32;100804.78;;;3.52;100.00
2875;BME280;1445;52.600;13.328;2023-01-31T01:49:11;100789.25;;;3.53;100.00
2875;BME280;1445;52.600;13.328;2023-01-31T01:51:38;100775.03;;;3.51;100.00
2875;BME280;1445;52.600;13.328;2023-01-31T01:54:08;100794.13;;;3.51;100.00
2875;BME280;1445;52.600;13.328;2023-01-31T01:56:40;100797.13;;;3.49;100.00
2875;BME280;1445;52.600;13.328;2023-01-31T02:01:48;100815.19;;;3.55;100.00
2875;BME280;1445;52.600;13.328;2023-01-31T02:04:16;100798.75;;;3.50;100.00
2875;BME280;1445;52.600;13.328;2023-01-31T02:06:44;100807.75;;;3.51;100.00
2875;BME280;1445;52.600;13.328;2023-01-31T02:09:17;100827.91;;;3.50;100.00
2875;BME280;1445;52.600;13.328;2023-01-31T02:11:44;100810.25;;;3.52;100.00
2875;BME280;1445;52.600;13.328;2023-01-31T02:14:10;100812.66;;;3.49;100.00
2875;BME280;1445;52.600;13.328;2023-01-31T02:16:36;100812.06;;;3.47;100.00
2875;BME280;1445;52.600;13.328;2023-01-31T02:19:04;100824.31;;;3.44;100.00
2875;BME280;1445;52.600;13.328;2023-01-31T02:38:12;100870.81;;;3.38;100.00
2875;BME280;1445;52.600;13.328;2023-01-31T02:41:04;100869.09;;;3.31;100.00
2875;BME280;1445;52.600;13.328;2023-01-31T02:46:45;100876.19;;;3.16;100.00
2875;BME280;1445;52.600;13.328;2023-01-31T02:49:40;100875.69;;;3.02;100.00
2875;BME280;1445;52.600;13.328;2023-01-31T02:54:44;100858.03;;;2.87;100.00
2875;BME280;1445;52.600;13.328;2023-01-31T02:57:31;100870.03;;;2.86;100.00
2875;BME280;1445;52.600;13.328;2023-01-31T02:59:57;100852.88;;;2.86;100.00
2875;BME280;1445;52.600;13.328;2023-01-31T03:02:24;100866.91;;;2.78;100.00
2875;BME280;1445;52.600;13.328;2023-01-31T03:04:50;100868.78;;;2.77;100.00
2875;BME280;1445;52.600;13.328;2023-01-31T03:07:19;100870.81;;;2.70;100.00
2875;BME280;1445;52.600;13.328;2023-01-31T03:10:44;100859.94;;;2.70;100.00
2875;BME280;1445;52.600;13.328;2023-01-31T03:16:11;100859.88;;;2.65;100.00
2875;BME280;1445;52.600;13.328;2023-01-31T03:18:58;100870.09;;;2.58;100.00
2875;BME280;1445;52.600;13.328;2023-01-31T03:21:33;100875.78;;;2.56;100.00
2875;BME280;1445;52.600;13.328;2023-01-31T03:24:03;100871.66;;;2.54;100.00
2875;BME280;1445;52.600;13.328;2023-01-31T03:26:30;100869.59;;;2.61;100.00
2875;BME280;1445;52.600;13.328;2023-01-31T03:28:58;100872.88;;;2.63;100.00
2875;BME280;1445;52.600;13.328;2023-01-31T03:31:32;100886.75;;;2.61;100.00
2875;BME280;1445;52.600;13.328;2023-01-31T03:34:04;100898.13;;;2.58;100.00
2875;BME280;1445;52.600;13.328;2023-01-31T03:36:55;100886.66;;;2.56;100.00
2875;BME280;1445;52.600;13.328;2023-01-31T03:42:24;100911.16;;;2.56;100.00
2875;BME280;1445;52.600;13.328;2023-01-31T03:45:13;100911.66;;;2.53;100.00
2875;BME280;1445;52.600;13.328;2023-01-31T03:47:44;100914.03;;;2.50;100.00
2875;BME280;1445;52.600;13.328;2023-01-31T03:50:15;100904.44;;;2.47;100.00
2875;BME280;1445;52.600;13.328;2023-01-31T03:52:58;100907.41;;;2.46;100.00
2875;BME280;1445;52.600;13.328;2023-01-31T03:58:05;100914.03;;;2.50;100.00
2875;BME280;1445;52.600;13.328;2023-01-31T04:00:33;100936.03;;;2.48;100.00
2875;BME280;1445;52.600;13.328;2023-01-31T04:03:14;100949.97;;;2.52;100.00
2875;BME280;1445;52.600;13.328;2023-01-31T04:05:40;100929.75;;;2.48;100.00
2875;BME280;1445;52.600;13.328;2023-01-31T04:08:06;100924.31;;;2.48;100.00
2875;BME280;1445;52.600;13.328;2023-01-31T04:10:31;100934.97;;;2.49;100.00
2875;BME280;1445;52.600;13.328;2023-01-31T04:12:57;100939.81;;;2.47;100.00
2875;BME280;1445;52.600;13.328;2023-01-31T04:15:23;100953.31;;;2.42;100.00
2875;BME280;1445;52.600;13.328;2023-01-31T04:17:48;100927.44;;;2.39;100.00
2875;BME280;1445;52.600;13.328;2023-01-31T04:20:14;100934.78;;;2.39;100.00
2875;BME280;1445;52.600;13.328;2023-01-31T04:22:39;100924.84;;;2.33;100.00
2875;BME280;1445;52.600;13.328;2023-01-31T04:25:05;100926.16;;;2.30;100.00
2875;BME280;1445;52.600;13.328;2023-01-31T04:27:31;100920.50;;;2.32;100.00
2875;BME280;1445;52.600;13.328;2023-01-31T04:29:57;100916.84;;;2.26;100.00
2875;BME280;1445;52.600;13.328;2023-01-31T04:32:22;100921.78;;;2.29;100.00
2875;BME280;1445;52.600;13.328;2023-01-31T04:34:48;100927.72;;;2.26;100.00
2875;BME280;1445;52.600;13.328;2023-01-31T04:37:13;100923.50;;;2.19;100.00
2875;BME280;1445;52.600;13.328;2023-01-31T04:39:38;100933.28;;;2.20;100.00
2875;BME280;1445;52.600;13.328;2023-01-31T04:42:04;100959.19;;;2.22;100.00
2875;BME280;1445;52.600;13.328;2023-01-31T04:44:29;100959.91;;;2.18;100.00
2875;BME280;1445;52.600;13.328;2023-01-31T04:46:55;100960.28;;;2.21;100.00
2875;BME280;1445;52.600;13.328;2023-01-31T04:49:20;100967.09;;;2.24;100.00
2875;BME280;1445;52.600;13.328;2023-01-31T04:51:46;100978.91;;;2.29;100.00
2875;BME280;1445;52.600;13.328;2023-01-31T04:54:11;100980.22;;;2.27;100.00
2875;BME280;1445;52.600;13.328;2023-01-31T04:56:37;101009.06;;;2.28;100.00
2875;BME280;1445;52.600;13.328;2023-01-31T04:59:02;100991.22;;;2.32;100.00
2875;BME280;1445;52.600;13.328;2023-01-31T05:01:27;100991.84;;;2.22;100.00
2875;BME280;1445;52.600;13.328;2023-01-31T05:03:53;100990.53;;;2.25;100.00
2875;BME280;1445;52.600;13.328;2023-01-31T05:06:19;100992.53;;;2.18;100.00
2875;BME280;1445;52.600;13.328;2023-01-31T05:08:44;100985.22;;;2.18;100.00
2875;BME280;1445;52.600;13.328;2023-01-31T05:11:10;101001.41;;;2.25;100.00
2875;BME280;1445;52.600;13.328;2023-01-31T05:13:36;100979.16;;;2.28;100.00
2875;BME280;1445;52.600;13.328;2023-01-31T05:16:07;100975.03;;;2.25;100.00
2875;BME280;1445;52.600;13.328;2023-01-31T05:18:33;100971.25;;;2.26;100.00
2875;BME280;1445;52.600;13.328;2023-01-31T05:21:00;100981.66;;;2.29;100.00
2875;BME280;1445;52.600;13.328;2023-01-31T05:23:26;100968.88;;;2.30;100.00
2875;BME280;1445;52.600;13.328;2023-01-31T05:25:51;100973.34;;;2.36;100.00
2875;BME280;1445;52.600;13.328;2023-01-31T05:28:17;100983.16;;;2.37;100.00
2875;BME280;1445;52.600;13.328;2023-01-31T05:30:42;100977.97;;;2.35;100.00
2875;BME280;1445;52.600;13.328;2023-01-31T05:33:08;100981.50;;;2.36;100.00
2875;BME280;1445;52.600;13.328;2023-01-31T05:35:33;100988.13;;;2.40;100.00
2875;BME280;1445;52.600;13.328;2023-01-31T05:37:59;100999.91;;;2.46;100.00
2875;BME280;1445;52.600;13.328;2023-01-31T05:40:25;100998.38;;;2.50;100.00
2875;BME280;1445;52.600;13.328;2023-01-31T05:42:57;101007.72;;;2.54;100.00
2875;BME280;1445;52.600;13.328;2023-01-31T05:45:25;100996.69;;;2.60;100.00
2875;BME280;1445;52.600;13.328;2023-01-31T05:47:51;101005.75;;;2.66;100.00
2875;BME280;1445;52.600;13.328;2023-01-31T05:50:17;100992.75;;;2.68;100.00
2875;BME280;1445;52.600;13.328;2023-01-31T05:52:42;101002.19;;;2.77;100.00
2875;BME280;1445;52.600;13.328;2023-01-31T05:55:08;100995.25;;;2.86;100.00
2875;BME280;1445;52.600;13.328;2023-01-31T05:57:34;101008.38;;;2.90;100.00
2875;BME280;1445;52.600;13.328;2023-01-31T05:59:59;101016.63;;;2.95;100.00
2875;BME280;1445;52.600;13.328;2023-01-31T06:02:25;101034.66;;;2.96;100.00
2875;BME280;1445;52.600;13.328;2023-01-31T06:04:50;101018.41;;;3.01;100.00
2875;BME280;1445;52.600;13.328;2023-01-31T06:07:16;101023.13;;;3.22;100.00
2875;BME280;1445;52.600;13.328;2023-01-31T06:09:41;101009.13;;;3.30;100.00
2875;BME280;1445;52.600;13.328;2023-01-31T06:12:12;101000.03;;;3.25;100.00
2875;BME280;1445;52.600;13.328;2023-01-31T06:14:38;100999.69;;;3.21;100.00
2875;BME280;1445;52.600;13.328;2023-01-31T06:17:04;101005.47;;;3.25;100.00
2875;BME280;1445;52.600;13.328;2023-01-31T06:19:29;101005.97;;;3.22;100.00
2875;BME280;1445;52.600;13.328;2023-01-31T06:21:54;101010.09;;;3.24;100.00
2875;BME280;1445;52.600;13.328;2023-01-31T06:24:20;101023.78;;;3.29;100.00
2875;BME280;1445;52.600;13.328;2023-01-31T06:26:46;101021.66;;;3.31;100.00
2875;BME280;1445;52.600;13.328;2023-01-31T06:29:11;101017.63;;;3.34;100.00
2875;BME280;1445;52.600;13.328;2023-01-31T06:31:37;101012.75;;;3.36;100.00
2875;BME280;1445;52.600;13.328;2023-01-31T06:34:02;101019.00;;;3.37;100.00
2875;BME280;1445;52.600;13.328;2023-01-31T06:36:30;101038.19;;;3.42;100.00
2875;BME280;1445;52.600;13.328;2023-01-31T06:38:56;101017.97;;;3.38;100.00
2875;BME280;1445;52.600;13.328;2023-01-31T06:41:21;101032.63;;;3.37;100.00
2875;BME280;1445;52.600;13.328;2023-01-31T06:43:47;101022.31;;;3.39;100.00
2875;BME280;1445;52.600;13.328;2023-01-31T06:46:12;101025.66;;;3.41;100.00
2875;BME280;1445;52.600;13.328;2023-01-31T06:48:38;101022.66;;;3.42;100.00
2875;BME280;1445;52.600;13.328;2023-01-31T06:51:04;101035.53;;;3.47;100.00
2875;BME280;1445;52.600;13.328;2023-01-31T06:53:29;101017.22;;;3.42;100.00
2875;BME280;1445;52.600;13.328;2023-01-31T06:55:54;101048.59;;;3.45;100.00
2875;BME280;1445;52.600;13.328;2023-01-31T06:58:20;101021.41;;;3.50;100.00
2875;BME280;1445;52.600;13.328;2023-01-31T07:00:45;101022.16;;;3.45;100.00
2875;BME280;1445;52.600;13.328;2023-01-31T07:03:11;101035.31;;;3.48;100.00
2875;BME280;1445;52.600;13.328;2023-01-31T07:05:37;101029.53;;;3.45;100.00
2875;BME280;1445;52.600;13.328;2023-01-31T07:08:06;101027.34;;;3.47;100.00
2875;BME280;1445;52.600;13.328;2023-01-31T07:10:31;101028.28;;;3.52;100.00
2875;BME280;1445;52.600;13.328;2023-01-31T07:12:56;101023.91;;;3.51;100.00
2875;BME280;1445;52.600;13.328;2023-01-31T07:15:22;101029.59;;;3.50;100.00
2875;BME280;1445;52.600;13.328;2023-01-31T07:17:47;101008.44;;;3.57;100.00
2875;BME280;1445;52.600;13.328;2023-01-31T07:20:13;101019.84;;;3.54;100.00
2875;BME280;1445;52.600;13.328;2023-01-31T07:22:41;101028.13;;;3.59;100.00
2875;BME280;1445;52.600;13.328;2023-01-31T07:25:07;101053.75;;;3.58;100.00
2875;BME280;1445;52.600;13.328;2023-01-31T07:27:32;101022.50;;;3.66;100.00
2875;BME280;1445;52.600;13.328;2023-01-31T07:29:58;101029.44;;;3.56;100.00
2875;BME280;1445;52.600;13.328;2023-01-31T07:32:27;101025.88;;;3.56;100.00
2875;BME280;1445;52.600;13.328;2023-01-31T07:34:53;101032.97;;;3.57;100.00
2875;BME280;1445;52.600;13.328;2023-01-31T07:37:18;101026.81;;;3.62;100.00
2875;BME280;1445;52.600;13.328;2023-01-31T07:39:43;101034.13;;;3.61;100.00
2875;BME280;1445;52.600;13.328;2023-01-31T07:42:09;101024.63;;;3.64;100.00
2875;BME280;1445;52.600;13.328;2023-01-31T07:44:34;101039.03;;;3.59;100.00
2875;BME280;1445;52.600;13.328;2023-01-31T07:47:00;101027.38;;;3.64;100.00
2875;BME280;1445;52.600;13.328;2023-01-31T07:49:25;101033.41;;;3.66;100.00
2875;BME280;1445;52.600;13.328;2023-01-31T07:51:50;101012.16;;;3.68;100.00
2875;BME280;1445;52.600;13.328;2023-01-31T07:54:16;101012.75;;;3.70;100.00
2875;BME280;1445;52.600;13.328;2023-01-31T07:56:41;101016.56;;;3.69;100.00
2875;BME280;1445;52.600;13.328;2023-01-31T07:59:07;101029.34;;;3.68;100.00
2875;BME280;1445;52.600;13.328;2023-01-31T08:01:32;101008.28;;;3.64;100.00
2875;BME280;1445;52.600;13.328;2023-01-31T08:04:17;101014.22;;;3.61;100.00
2875;BME280;1445;52.600;13.328;2023-01-31T08:06:43;101033.63;;;3.64;100.00
2875;BME280;1445;52.600;13.328;2023-01-31T08:09:09;101033.63;;;3.64;100.00
2875;BME280;1445;52.600;13.328;2023-01-31T08:11:35;101008.06;;;3.65;100.00
2875;BME280;1445;52.600;13.328;2023-01-31T08:14:01;101014.56;;;3.64;100.00
2875;BME280;1445;52.600;13.328;2023-01-31T08:16:26;101016.22;;;3.65;100.00
2875;BME280;1445;52.600;13.328;2023-01-31T08:18:52;101029.59;;;3.67;100.00
2875;BME280;1445;52.600;13.328;2023-01-31T08:21:18;101038.38;;;3.69;100.00
2875;BME280;1445;52.600;13.328;2023-01-31T08:23:44;101015.03;;;3.61;100.00
2875;BME280;1445;52.600;13.328;2023-01-31T08:26:20;101018.69;;;3.67;100.00
2875;BME280;1445;52.600;13.328;2023-01-31T08:28:48;101010.78;;;3.65;100.00
2875;BME280;1445;52.600;13.328;2023-01-31T08:31:24;101029.53;;;3.62;100.00
2875;BME280;1445;52.600;13.328;2023-01-31T08:33:50;100997.06;;;3.60;100.00
2875;BME280;1445;52.600;13.328;2023-01-31T08:36:28;100996.56;;;3.63;100.00
2875;BME280;1445;52.600;13.328;2023-01-31T08:38:56;101011.00;;;3.64;100.00
2875;BME280;1445;52.600;13.328;2023-01-31T08:41:24;101005.88;;;3.67;100.00
2875;BME280;1445;52.600;13.328;2023-01-31T08:43:51;101011.09;;;3.69;100.00
2875;BME280;1445;52.600;13.328;2023-01-31T08:46:17;101006.22;;;3.71;100.00
2875;BME280;1445;52.600;13.328;2023-01-31T08:48:43;101020.16;;;3.74;100.00
2875;BME280;1445;52.600;13.328;2023-01-31T08:51:10;101023.81;;;3.80;100.00
2875;BME280;1445;52.600;13.328;2023-01-31T08:53:37;101010.72;;;3.82;100.00
2875;BME280;1445;52.600;13.328;2023-01-31T08:56:05;100995.72;;;3.79;100.00
2875;BME280;1445;52.600;13.328;2023-01-31T08:58:31;100999.91;;;3.87;100.00
2875;BME280;1445;52.600;13.328;2023-01-31T09:01:02;100998.84;;;3.88;100.00
2875;BME280;1445;52.600;13.328;2023-01-31T09:03:28;100990.97;;;3.92;100.00
2875;BME280;1445;52.600;13.328;2023-01-31T09:05:53;100996.53;;;3.97;100.00
2875;BME280;1445;52.600;13.328;2023-01-31T09:08:19;101003.13;;;4.01;100.00
2875;BME280;1445;52.600;13.328;2023-01-31T09:10:52;100996.56;;;4.02;100.00
2875;BME280;1445;52.600;13.328;2023-01-31T09:13:18;100983.94;;;3.96;100.00
2875;BME280;1445;52.600;13.328;2023-01-31T09:15:43;100976.34;;;3.98;100.00
2875;BME280;1445;52.600;13.328;2023-01-31T09:18:09;100970.88;;;3.98;100.00
2875;BME280;1445;52.600;13.328;2023-01-31T09:20:34;100970.06;;;3.97;100.00
2875;BME280;1445;52.600;13.328;2023-01-31T09:23:00;100973.13;;;4.01;100.00
2875;BME280;1445;52.600;13.328;2023-01-31T09:25:25;100974.16;;;4.00;100.00
2875;BME280;1445;52.600;13.328;2023-01-31T09:27:52;100976.41;;;4.03;100.00
2875;BME280;1445;52.600;13.328;2023-01-31T09:30:17;100967.53;;;4.13;100.00
2875;BME280;1445;52.600;13.328;2023-01-31T09:32:43;100953.31;;;4.11;100.00
2875;BME280;1445;52.600;13.328;2023-01-31T09:35:10;100951.75;;;4.15;100.00
2875;BME280;1445;52.600;13.328;2023-01-31T09:37:39;100958.06;;;4.20;100.00
2875;BME280;1445;52.600;13.328;2023-01-31T09:40:05;100953.19;;;4.22;100.00
2875;BME280;1445;52.600;13.328;2023-01-31T09:42:43;100956.03;;;4.33;100.00
2875;BME280;1445;52.600;13.328;2023-01-31T09:45:20;100936.69;;;4.34;100.00
2875;BME280;1445;52.600;13.328;2023-01-31T09:47:53;100936.16;;;4.37;100.00
2875;BME280;1445;52.600;13.328;2023-01-31T09:50:41;100929.75;;;4.48;100.00
2875;BME280;1445;52.600;13.328;2023-01-31T09:53:11;100931.66;;;4.48;100.00
2875;BME280;1445;52.600;13.328;2023-01-31T09:58:47;100917.94;;;4.70;100.00
2875;BME280;1445;52.600;13.328;2023-01-31T10:09:27;100884.84;;;4.61;100.00
2875;BME280;1445;52.600;13.328;2023-01-31T10:11:58;100898.63;;;4.76;100.00
2875;BME280;1445;52.600;13.328;2023-01-31T10:17:10;100877.88;;;4.75;100.00
2875;BME280;1445;52.600;13.328;2023-01-31T10:19:56;100882.19;;;4.71;100.00
2875;BME280;1445;52.600;13.328;2023-01-31T10:25:05;100876.75;;;4.71;100.00
2875;BME280;1445;52.600;13.328;2023-01-31T10:27:44;100872.63;;;4.69;100.00
2875;BME280;1445;52.600;13.328;2023-01-31T10:30:19;100864.63;;;4.62;100.00
2875;BME280;1445;52.600;13.328;2023-01-31T10:32:56;100869.78;;;4.59;100.00
2875;BME280;1445;52.600;13.328;2023-01-31T10:35:28;100849.66;;;4.65;100.00
2875;BME280;1445;52.600;13.328;2023-01-31T10:38:36;100833.13;;;4.49;100.00
2875;BME280;1445;52.600;13.328;2023-01-31T10:41:12;100850.84;;;4.47;100.00
2875;BME280;1445;52.600;13.328;2023-01-31T10:43:45;100847.84;;;4.48;100.00
2875;BME280;1445;52.600;13.328;2023-01-31T10:46:13;100859.88;;;4.52;100.00
2875;BME280;1445;52.600;13.328;2023-01-31T10:48:43;100854.19;;;4.54;100.00
2875;BME280;1445;52.600;13.328;2023-01-31T10:54:12;100842.78;;;4.62;100.00
2875;BME280;1445;52.600;13.328;2023-01-31T10:56:42;100832.16;;;4.66;100.00
2875;BME280;1445;52.600;13.328;2023-01-31T10:59:24;100820.22;;;4.72;100.00
2875;BME280;1445;52.600;13.328;2023-01-31T11:01:50;100819.13;;;4.73;100.00
2875;BME280;1445;52.600;13.328;2023-01-31T11:04:37;100795.13;;;4.80;100.00
2875;BME280;1445;52.600;13.328;2023-01-31T11:07:04;100795.13;;;4.80;100.00
2875;BME280;1445;52.600;13.328;2023-01-31T11:09:35;100784.78;;;4.82;100.00
2875;BME280;1445;52.600;13.328;2023-01-31T11:12:04;100793.53;;;4.84;100.00
2875;BME280;1445;52.600;13.328;2023-01-31T11:14:31;100812.34;;;4.81;100.00
2875;BME280;1445;52.600;13.328;2023-01-31T11:17:20;100780.41;;;4.81;100.00
2875;BME280;1445;52.600;13.328;2023-01-31T11:19:54;100776.31;;;4.84;100.00
2875;BME280;1445;52.600;13.328;2023-01-31T11:22:24;100761.97;;;4.98;100.00
2875;BME280;1445;52.600;13.328;2023-01-31T11:24:51;100746.41;;;4.99;100.00
2875;BME280;1445;52.600;13.328;2023-01-31T11:27:25;100752.38;;;4.96;100.00
2875;BME280;1445;52.600;13.328;2023-01-31T11:29:51;100738.97;;;4.94;100.00
2875;BME280;1445;52.600;13.328;2023-01-31T11:32:21;100745.47;;;4.83;100.00
2875;BME280;1445;52.600;13.328;2023-01-31T11:40:20;100737.53;;;4.82;100.00
2875;BME280;1445;52.600;13.328;2023-01-31T11:43:00;100726.63;;;4.82;100.00
2875;BME280;1445;52.600;13.328;2023-01-31T11:45:31;100755.28;;;4.84;100.00
2875;BME280;1445;52.600;13.328;2023-01-31T11:48:26;100724.72;;;4.82;100.00
2875;BME280;1445;52.600;13.328;2023-01-31T11:53:18;100708.63;;;4.86;100.00
2875;BME280;1445;52.600;13.328;2023-01-31T11:55:45;100704.25;;;4.90;100.00
2875;BME280;1445;52.600;13.328;2023-01-31T11:58:34;100687.88;;;4.95;100.00
2875;BME280;1445;52.600;13.328;2023-01-31T12:01:23;100665.78;;;5.01;100.00
2875;BME280;1445;52.600;13.328;2023-01-31T12:04:01;100650.22;;;4.97;100.00
2875;BME280;1445;52.600;13.328;2023-01-31T12:06:35;100648.00;;;4.94;100.00
2875;BME280;1445;52.600;13.328;2023-01-31T12:09:04;100644.16;;;4.90;100.00
2875;BME280;1445;52.600;13.328;2023-01-31T12:11:34;100650.63;;;4.68;100.00
2875;BME280;1445;52.600;13.328;2023-01-31T12:16:33;100650.25;;;4.54;100.00
2875;BME280;1445;52.600;13.328;2023-01-31T12:19:23;100647.75;;;4.48;100.00
2875;BME280;1445;52.600;13.328;2023-01-31T12:27:29;100629.16;;;4.40;100.00
2875;BME280;1445;52.600;13.328;2023-01-31T12:30:06;100641.41;;;4.32;100.00
2875;BME280;1445;52.600;13.328;2023-01-31T12:32:49;100633.47;;;4.30;100.00
2875;BME280;1445;52.600;13.328;2023-01-31T12:38:26;100644.34;;;4.25;100.00
2875;BME280;1445;52.600;13.328;2023-01-31T12:44:10;100641.75;;;4.09;100.00
2875;BME280;1445;52.600;13.328;2023-01-31T13:07:02;100622.00;;;3.91;100.00
2875;BME280;1445;52.600;13.328;2023-01-31T13:09:32;100610.56;;;3.94;100.00
2875;BME280;1445;52.600;13.328;2023-01-31T13:14:51;100611.38;;;3.95;100.00
2875;BME280;1445;52.600;13.328;2023-01-31T13:17:26;100620.66;;;3.94;100.00
2875;BME280;1445;52.600;13.328;2023-01-31T13:22:55;100605.91;;;3.95;100.00
2875;BME280;1445;52.600;13.328;2023-01-31T13:31:02;100585.53;;;4.02;100.00
2875;BME280;1445;52.600;13.328;2023-01-31T13:33:40;100597.81;;;4.05;100.00
2875;BME280;1445;52.600;13.328;2023-01-31T13:36:23;100589.06;;;4.03;100.00
2875;BME280;1445;52.600;13.328;2023-01-31T13:38:51;100612.00;;;4.07;100.00
2875;BME280;1445;52.600;13.328;2023-01-31T13:43:48;100606.31;;;4.14;100.00
2875;BME280;1445;52.600;13.328;2023-01-31T13:46:18;100586.72;;;4.17;100.00
2875;BME280;1445;52.600;13.328;2023-01-31T13:48:51;100581.25;;;4.17;100.00
2875;BME280;1445;52.600;13.328;2023-01-31T13:56:40;100591.91;;;4.18;100.00
2875;BME280;1445;52.600;13.328;2023-01-31T13:59:07;100605.00;;;4.16;100.00
2875;BME280;1445;52.600;13.328;2023-01-31T14:01:41;100588.66;;;4.21;100.00
2875;BME280;1445;52.600;13.328;2023-01-31T14:14:55;100585.88;;;4.16;100.00
2875;BME280;1445;52.600;13.328;2023-01-31T14:27:35;100556.47;;;4.23;100.00
2875;BME280;1445;52.600;13.328;2023-01-31T14:35:21;100548.56;;;4.22;100.00
2875;BME280;1445;52.600;13.328;2023-01-31T14:37:54;100566.28;;;4.24;100.00
2875;BME280;1445;52.600;13.328;2023-01-31T14:40:33;100547.75;;;4.21;100.00
2875;BME280;1445;52.600;13.328;2023-01-31T14:51:23;100540.91;;;4.24;100.00
2875;BME280;1445;52.600;13.328;2023-01-31T14:59:31;100536.84;;;4.31;100.00
2875;BME280;1445;52.600;13.328;2023-01-31T15:01:58;100552.69;;;4.29;100.00
2875;BME280;1445;52.600;13.328;2023-01-31T15:04:26;100537.72;;;4.37;100.00
2875;BME280;1445;52.600;13.328;2023-01-31T15:06:53;100521.34;;;4.37;100.00
2875;BME280;1445;52.600;13.328;2023-01-31T15:11:56;100520.53;;;4.42;100.00
2875;BME280;1445;52.600;13.328;2023-01-31T15:14:42;100521.38;;;4.47;100.00
2875;BME280;1445;52.600;13.328;2023-01-31T15:17:20;100526.84;;;4.47;100.00
2875;BME280;1445;52.600;13.328;2023-01-31T15:19:51;100530.41;;;4.48;100.00
2875;BME280;1445;52.600;13.328;2023-01-31T15:22:19;100517.03;;;4.46;100.00
2875;BME280;1445;52.600;13.328;2023-01-31T15:24:50;100518.13;;;4.50;100.00
2875;BME280;1445;52.600;13.328;2023-01-31T15:27:22;100530.41;;;4.48;100.00
2875;BME280;1445;52.600;13.328;2023-01-31T15:30:04;100509.94;;;4.50;100.00
2875;BME280;1445;52.600;13.328;2023-01-31T15:32:43;100515.13;;;4.52;100.00
2875;BME280;1445;52.600;13.328;2023-01-31T15:35:34;100518.94;;;4.51;100.00
2875;BME280;1445;52.600;13.328;2023-01-31T15:38:18;100519.53;;;4.58;100.00
2875;BME280;1445;52.600;13.328;2023-01-31T15:40:45;100510.00;;;4.61;100.00
2875;BME280;1445;52.600;13.328;2023-01-31T15:43:21;100514.06;;;4.58;100.00
2875;BME280;1445;52.600;13.328;2023-01-31T15:45:47;100490.06;;;4.60;100.00
2875;BME280;1445;52.600;13.328;2023-01-31T15:48:17;100500.16;;;4.65;100.00
2875;BME280;1445;52.600;13.328;2023-01-31T15:50:55;100497.16;;;4.66;100.00